Terminal Aerodrome Forecast
Issued by NWS Twin Cities, MN

Home | Current Version | Previous Version | Text Only | Print | Product List | Glossary Off
Versions: 1 2 3 4 5 6 7 8 9 10 11 12 13 14 15 16 17 18

000
FTUS43 KMPX 140918 AAA
TAFEAU
TAF AMD
KEAU 140918Z 1409/1506 VRB03KT P6SM SKC
     FM141200 VRB03KT P6SM BKN012 OVC030
     FM141500 24005KT P6SM OVC008
     FM142000 26006KT 5SM -SN OVC012
     FM150200 28006KT P6SM OVC018=

USA.gov is the U.S. government's official web portal to all federal, state and local government web resources and services.